»·PEaware :: N5303J KEUG-KEUG

N5303J :: KEUG-KEUG

FLIGHT INFORMATION

Flight Status: Arrived
Operator: Privately registered:
United States
More flights under this callsign
Pilot: Cory D. (20223)
Aircraft: CESSNA 172 SKYHAWK
(C172)
More flights by this aircraft type
Origin: KEUG Mahlon Sweet
United States
Destination: KEUG Mahlon Sweet
United States
More flights between these airports :: More routes between these airports
Route: +EUG9 EUG
File this flight plan on PilotEdge
Remarks: RNAV Y 16L MA
Altitude:
(Current/Filed)
4,000ft
Speed:
(Current/Filed)
110kts
Departed: 29-Aug-18 01:33 PM
Arrived: 29-Aug-18 02:25 PM
Distance/Time
Traveled:
1nm/0:52
Distance/Time
To Go:
Arrived

Flight Plot

Page will automatically refresh every two minutes.

Flight plan parsing failed; only flown route is shown


Map Options




Map Legend


Flown Route
Filed Route
Departure Airport
Arrival Airport
Navaid (VOR, NDB)
Fix

Horizontal Profiles

Position Reports

Time Latitude Longitude Heading Altitude Ground
Speed
29-Aug-18 13:15 44.120160 -123.213944 201 378ft 0kts
29-Aug-18 13:16 44.120160 -123.213944 201 378ft 0kts
29-Aug-18 13:17 44.120160 -123.213944 201 378ft 0kts
29-Aug-18 13:18 44.120160 -123.213944 201 378ft 0kts
29-Aug-18 13:19 44.120160 -123.213944 201 378ft 0kts
29-Aug-18 13:20 44.120160 -123.213944 201 378ft 0kts
29-Aug-18 13:21 44.120160 -123.213944 201 378ft 0kts
29-Aug-18 13:22 44.120160 -123.213944 201 378ft 0kts
29-Aug-18 13:23 44.120160 -123.213944 201 378ft 0kts
29-Aug-18 13:24 44.120160 -123.213944 201 378ft 0kts
29-Aug-18 13:25 44.120160 -123.213944 201 378ft 0kts
29-Aug-18 13:26 44.120160 -123.213944 201 378ft 0kts
29-Aug-18 13:27 44.120160 -123.213944 201 378ft 0kts
29-Aug-18 13:28 44.120160 -123.213944 201 378ft 0kts
29-Aug-18 13:29 44.120160 -123.213944 201 378ft 0kts
29-Aug-18 13:30 44.120106 -123.213997 221 378ft 4kts
29-Aug-18 13:31 44.125008 -123.217047 354 378ft 31kts
29-Aug-18 13:32 44.135001 -123.217233 352 378ft 29kts
29-Aug-18 13:33 44.135309 -123.217828 270 378ft 0kts
29-Aug-18 13:34 44.132625 -123.219105 178 378ft 58kts
29-Aug-18 13:35 44.111515 -123.220463 173 1241ft 78kts
29-Aug-18 13:36 44.090443 -123.212819 166 2141ft 81kts
29-Aug-18 13:37 44.068668 -123.208128 163 3017ft 81kts
29-Aug-18 13:38 44.046829 -123.198451 166 3732ft 93kts
29-Aug-18 13:39 44.033736 -123.217622 315 4089ft 114kts
29-Aug-18 13:40 44.061986 -123.240561 327 4043ft 127kts
29-Aug-18 13:41 44.093385 -123.262964 352 3850ft 137kts
29-Aug-18 13:42 44.127363 -123.262740 10 4003ft 123kts
29-Aug-18 13:43 44.161197 -123.250032 16 4019ft 124kts
29-Aug-18 13:44 44.195441 -123.237563 16 3891ft 135kts
29-Aug-18 13:45 44.229703 -123.232650 350 4052ft 127kts
29-Aug-18 13:46 44.264383 -123.235619 8 4064ft 128kts
29-Aug-18 13:47 44.299579 -123.228906 6 4055ft 128kts
29-Aug-18 13:48 44.334081 -123.223105 8 4084ft 132kts
29-Aug-18 13:49 44.369383 -123.213139 13 4080ft 126kts
29-Aug-18 13:50 44.403892 -123.208512 3 4149ft 124kts
29-Aug-18 13:51 44.437083 -123.194237 25 4131ft 129kts
29-Aug-18 13:52 44.455456 -123.205174 216 3969ft 127kts
29-Aug-18 13:53 44.424979 -123.205397 173 3303ft 86kts
29-Aug-18 13:54 44.400008 -123.202471 179 3169ft 101kts
29-Aug-18 13:55 44.374354 -123.202948 184 3157ft 88kts
29-Aug-18 13:56 44.351757 -123.204642 183 3178ft 85kts
29-Aug-18 13:57 44.327705 -123.205274 179 3149ft 90kts
29-Aug-18 13:58 44.302480 -123.205227 179 2627ft 98kts
29-Aug-18 13:59 44.276406 -123.205175 179 2393ft 97kts
29-Aug-18 14:00 44.249797 -123.204575 177 2252ft 93kts
29-Aug-18 14:01 44.223675 -123.203202 180 2093ft 100kts
29-Aug-18 14:02 44.195064 -123.203728 179 1702ft 104kts
29-Aug-18 14:03 44.164966 -123.203034 177 1054ft 113kts
29-Aug-18 14:04 44.136353 -123.202519 176 1168ft 88kts
29-Aug-18 14:05 44.111577 -123.200722 189 1819ft 104kts
29-Aug-18 14:06 44.084908 -123.205431 192 2419ft 120kts
29-Aug-18 14:07 44.088825 -123.224719 334 3275ft 100kts
29-Aug-18 14:08 44.113777 -123.233418 348 3914ft 107kts
29-Aug-18 14:09 44.144344 -123.246300 340 4046ft 126kts
29-Aug-18 14:10 44.176685 -123.262178 339 4122ft 129kts
29-Aug-18 14:11 44.210180 -123.277280 342 3985ft 132kts
29-Aug-18 14:12 44.241511 -123.292730 338 4017ft 118kts
29-Aug-18 14:13 44.271541 -123.307866 341 4030ft 116kts
29-Aug-18 14:14 44.301173 -123.321328 342 4109ft 116kts
29-Aug-18 14:15 44.333041 -123.328274 34 3700ft 120kts
29-Aug-18 14:16 44.338487 -123.284196 95 3190ft 110kts
29-Aug-18 14:17 44.338206 -123.245241 84 3021ft 95kts
29-Aug-18 14:18 44.324518 -123.224770 174 3044ft 91kts
29-Aug-18 14:19 44.298728 -123.221363 176 2802ft 90kts
29-Aug-18 14:20 44.272996 -123.220589 179 2552ft 96kts
29-Aug-18 14:21 44.246795 -123.221442 179 2310ft 94kts
29-Aug-18 14:22 44.220754 -123.220683 177 2049ft 96kts
29-Aug-18 14:23 44.193227 -123.219302 180 1572ft 98kts
29-Aug-18 14:24 44.165598 -123.219646 177 978ft 101kts
29-Aug-18 14:25 44.141295 -123.219197 177 526ft 66kts
29-Aug-18 14:26 44.129828 -123.217758 133 378ft 16kts
29-Aug-18 14:27 44.124864 -123.217082 180 378ft 25kts
29-Aug-18 14:28 44.117048 -123.216949 180 378ft 29kts
29-Aug-18 14:29 44.115093 -123.214758 83 378ft 5kts

Navigation Log

Ident Type
Flight plan parsing failed, navigation log unavailable